Time;durP1;ratioP1;P1;durP2;ratioP2;P2;SDS_P1;SDS_P2;PMS_P1;PMS_P2;Temp;Humidity;BMP_temperature;BMP_pressure;BME280_temperature;BME280_humidity;BME280_pressure;Samples;Min_cycle;Max_cycle;Signal;HPM_P1;HPM_P2
2023/09/10 00:00:52;;;;;;;36.17;32.33;;;;;;;;;;5053942;28;20123;-80
2023/09/10 00:03:18;;;;;;;34.88;31.17;;;;;;;;;;5071835;28;20051;-80
2023/09/10 00:05:44;;;;;;;35.67;31.88;;;;;;;;;;5071979;28;20040;-80
2023/09/10 00:08:10;;;;;;;35.40;31.65;;;;;;;;;;5065394;28;20044;-81
2023/09/10 00:10:37;;;;;;;35.88;32.05;;;;;;;;;;5052279;28;20506;-81
2023/09/10 00:13:03;;;;;;;36.03;31.85;;;;;;;;;;5067964;28;20515;-81
2023/09/10 00:15:29;;;;;;;34.90;31.27;;;;;;;;;;5059113;28;20037;-81
2023/09/10 00:17:56;;;;;;;34.97;31.27;;;;;;;;;;5054688;28;20049;-81
2023/09/10 00:20:22;;;;;;;38.10;34.00;;;;;;;;;;5053394;28;20049;-81
2023/09/10 00:22:48;;;;;;;36.03;32.13;;;;;;;;;;5058806;28;20051;-80
2023/09/10 00:25:14;;;;;;;37.20;32.28;;;;;;;;;;5061856;28;20071;-80
2023/09/10 00:27:40;;;;;;;36.05;32.15;;;;;;;;;;5071650;28;20045;-80
2023/09/10 00:30:06;;;;;;;34.50;30.80;;;;;;;;;;5056350;28;20078;-81
2023/09/10 00:32:32;;;;;;;34.90;31.15;;;;;;;;;;5051761;28;20041;-80
2023/09/10 00:34:58;;;;;;;36.42;32.53;;;;;;;;;;5053441;28;20382;-80
2023/09/10 00:37:24;;;;;;;37.75;33.65;;;;;;;;;;5053212;28;20183;-81
2023/09/10 00:39:50;;;;;;;36.47;32.35;;;;;;;;;;5051943;28;20052;-81
2023/09/10 00:42:17;;;;;;;37.10;33.10;;;;;;;;;;5066610;28;20044;-80
2023/09/10 00:44:44;;;;;;;36.20;32.40;;;;;;;;;;5077279;28;20106;-80
2023/09/10 00:47:10;;;;;;;33.92;30.45;;;;;;;;;;5077889;28;20109;-80
2023/09/10 00:49:37;;;;;;;35.75;31.33;;;;;;;;;;5072825;28;20492;-80
2023/09/10 00:52:04;;;;;;;36.38;32.47;;;;;;;;;;5071669;28;20101;-81
2023/09/10 00:54:33;;;;;;;35.35;31.63;;;;;;;;;;5072827;28;20040;-81
2023/09/10 00:57:03;;;;;;;37.22;33.30;;;;;;;;;;5054705;28;20417;-81
2023/09/10 00:59:30;;;;;;;35.88;32.13;;;;;;;;;;5050673;28;20128;-80
2023/09/10 01:01:57;;;;;;;38.35;34.30;;;;;;;;;;5059630;28;20036;-81
2023/09/10 01:04:23;;;;;;;36.80;31.65;;;;;;;;;;5070530;28;20417;-80
2023/09/10 01:06:51;;;;;;;35.50;31.70;;;;;;;;;;5057919;28;20048;-80
2023/09/10 01:09:17;;;;;;;38.17;34.17;;;;;;;;;;5071169;28;20115;-81
2023/09/10 01:11:43;;;;;;;36.75;32.65;;;;;;;;;;5070400;28;20540;-80
2023/09/10 01:14:12;;;;;;;36.72;32.72;;;;;;;;;;5069227;28;20124;-81
2023/09/10 01:16:57;;;;;;;38.40;34.25;;;;;;;;;;5053440;28;20048;-80
2023/09/10 01:19:26;;;;;;;37.13;33.27;;;;;;;;;;5063228;28;20052;-80
2023/09/10 01:22:06;;;;;;;37.63;33.60;;;;;;;;;;5068968;28;20404;-80
2023/09/10 01:24:45;;;;;;;37.95;33.85;;;;;;;;;;5056013;28;20052;-80
2023/09/10 01:27:13;;;;;;;37.25;33.47;;;;;;;;;;5059119;28;20037;-81
2023/09/10 01:29:39;;;;;;;39.17;33.97;;;;;;;;;;5075958;28;20033;-80
2023/09/10 01:32:06;;;;;;;35.83;32.05;;;;;;;;;;5070064;28;20066;-81
2023/09/10 01:34:34;;;;;;;39.05;34.95;;;;;;;;;;5064565;28;20382;-81
2023/09/10 01:37:08;;;;;;;40.42;36.00;;;;;;;;;;5076043;28;20102;-81
2023/09/10 01:39:40;;;;;;;40.05;35.75;;;;;;;;;;5061437;28;20102;-81
2023/09/10 01:42:07;;;;;;;42.60;37.08;;;;;;;;;;5056301;28;20053;-81
2023/09/10 01:44:36;;;;;;;40.25;35.88;;;;;;;;;;5055048;28;20053;-80
2023/09/10 01:47:03;;;;;;;38.30;34.28;;;;;;;;;;5055855;28;20060;-80
2023/09/10 01:49:29;;;;;;;39.67;35.30;;;;;;;;;;5061977;28;20101;-81
2023/09/10 01:51:55;;;;;;;40.67;36.33;;;;;;;;;;5076520;28;20044;-80
2023/09/10 01:54:21;;;;;;;44.90;39.65;;;;;;;;;;5075744;28;20056;-80
2023/09/10 01:56:47;;;;;;;42.13;37.75;;;;;;;;;;5075845;28;20048;-81
2023/09/10 01:59:13;;;;;;;42.13;37.80;;;;;;;;;;5074617;28;20611;-80
2023/09/10 02:01:39;;;;;;;41.83;37.42;;;;;;;;;;5075576;28;20127;-80
2023/09/10 02:04:05;;;;;;;42.90;38.30;;;;;;;;;;5075212;28;20455;-80
2023/09/10 02:06:31;;;;;;;42.22;37.60;;;;;;;;;;5074605;28;20515;-81
2023/09/10 02:08:57;;;;;;;40.80;36.50;;;;;;;;;;5075110;28;20433;-80
2023/09/10 02:11:25;;;;;;;41.17;36.72;;;;;;;;;;5075391;28;20056;-80
2023/09/10 02:13:53;;;;;;;46.33;39.53;;;;;;;;;;5062019;28;20463;-80
2023/09/10 02:16:19;;;;;;;43.22;38.53;;;;;;;;;;5074735;28;20494;-80
2023/09/10 02:18:45;;;;;;;43.40;38.80;;;;;;;;;;5061988;28;20377;-81
2023/09/10 02:21:11;;;;;;;44.88;40.08;;;;;;;;;;5052756;28;20049;-80
2023/09/10 02:23:38;;;;;;;44.42;39.72;;;;;;;;;;5056142;28;20052;-80
2023/09/10 02:26:04;;;;;;;45.40;40.35;;;;;;;;;;5074726;28;20072;-80
2023/09/10 02:28:32;;;;;;;44.05;39.35;;;;;;;;;;5073911;28;20036;-80
2023/09/10 02:31:04;;;;;;;43.92;39.28;;;;;;;;;;5071001;28;20117;-81
2023/09/10 02:33:30;;;;;;;44.20;38.70;;;;;;;;;;5057648;28;20374;-80
2023/09/10 02:35:56;;;;;;;45.85;39.47;;;;;;;;;;5060757;28;20033;-80
2023/09/10 02:38:24;;;;;;;43.30;38.60;;;;;;;;;;5072561;28;20587;-80
2023/09/10 02:40:50;;;;;;;44.35;39.65;;;;;;;;;;5058273;28;20165;-80
2023/09/10 02:43:16;;;;;;;44.63;39.80;;;;;;;;;;5054816;28;20500;-81
2023/09/10 02:45:42;;;;;;;43.60;38.95;;;;;;;;;;5072657;28;20389;-80
2023/09/10 02:48:08;;;;;;;44.58;39.78;;;;;;;;;;5064982;28;20053;-81
2023/09/10 02:50:34;;;;;;;44.28;38.97;;;;;;;;;;5067749;28;20052;-80
2023/09/10 02:53:00;;;;;;;43.72;39.03;;;;;;;;;;5074383;28;20048;-80
2023/09/10 02:55:26;;;;;;;43.65;39.05;;;;;;;;;;5058689;28;20045;-80
2023/09/10 02:57:52;;;;;;;48.70;41.13;;;;;;;;;;5042385;28;20511;-80
2023/09/10 03:00:22;;;;;;;46.03;41.13;;;;;;;;;;5074311;28;20083;-80
2023/09/10 03:02:51;;;;;;;43.10;38.40;;;;;;;;;;5072593;28;20051;-80
2023/09/10 03:05:17;;;;;;;44.83;37.95;;;;;;;;;;5060092;28;20063;-80
2023/09/10 03:07:43;;;;;;;41.83;37.30;;;;;;;;;;5060033;28;20522;-80
2023/09/10 03:10:09;;;;;;;41.22;36.67;;;;;;;;;;5074352;28;20123;-80
2023/09/10 03:12:35;;;;;;;41.97;36.75;;;;;;;;;;5073293;28;20056;-80
2023/09/10 03:15:02;;;;;;;44.33;39.35;;;;;;;;;;5062082;28;20053;-80
2023/09/10 03:17:28;;;;;;;43.65;38.70;;;;;;;;;;5052793;28;20036;-80
2023/09/10 03:19:54;;;;;;;47.28;38.33;;;;;;;;;;5055884;28;20458;-81
2023/09/10 03:22:20;;;;;;;42.42;37.85;;;;;;;;;;5070461;28;20041;-81
2023/09/10 03:24:46;;;;;;;43.58;38.70;;;;;;;;;;5058467;28;20071;-80
2023/09/10 03:27:12;;;;;;;43.42;38.65;;;;;;;;;;5072470;28;20052;-80
2023/09/10 03:29:38;;;;;;;42.78;38.13;;;;;;;;;;5065609;28;20044;-80
2023/09/10 03:32:08;;;;;;;42.33;37.55;;;;;;;;;;5053726;28;20056;-81
2023/09/10 03:34:34;;;;;;;44.33;39.67;;;;;;;;;;5064335;28;20075;-81
2023/09/10 03:37:03;;;;;;;42.83;38.22;;;;;;;;;;5052587;28;20049;-81
2023/09/10 03:39:29;;;;;;;41.63;37.10;;;;;;;;;;5062164;28;20040;-80
2023/09/10 03:41:55;;;;;;;44.72;40.05;;;;;;;;;;5073147;28;20040;-80
2023/09/10 03:44:21;;;;;;;43.25;38.65;;;;;;;;;;5073923;28;20397;-80
2023/09/10 03:46:47;;;;;;;43.13;38.42;;;;;;;;;;5073048;28;20144;-81
2023/09/10 03:49:13;;;;;;;42.38;38.08;;;;;;;;;;5066992;28;20041;-80
2023/09/10 03:51:40;;;;;;;46.30;41.33;;;;;;;;;;5060848;28;20040;-80
2023/09/10 03:54:11;;;;;;;43.88;39.30;;;;;;;;;;5071175;28;20036;-80
2023/09/10 03:56:38;;;;;;;44.72;40.03;;;;;;;;;;5072165;28;20110;-81
2023/09/10 03:59:05;;;;;;;44.80;39.80;;;;;;;;;;5055464;28;20132;-79
2023/09/10 04:01:31;;;;;;;45.42;40.50;;;;;;;;;;5077052;28;20116;-80
2023/09/10 04:03:57;;;;;;;43.88;39.13;;;;;;;;;;5075347;28;20041;-80
2023/09/10 04:06:23;;;;;;;44.85;40.15;;;;;;;;;;5073826;28;20072;-80
2023/09/10 04:08:49;;;;;;;44.88;39.33;;;;;;;;;;5057445;28;20052;-80
2023/09/10 04:11:15;;;;;;;42.65;38.15;;;;;;;;;;5051772;28;20094;-80
2023/09/10 04:13:41;;;;;;;43.70;38.90;;;;;;;;;;5062341;28;20049;-80
2023/09/10 04:16:07;;;;;;;42.95;38.53;;;;;;;;;;5077236;28;20119;-80
2023/09/10 04:18:34;;;;;;;44.30;39.30;;;;;;;;;;5073758;28;20056;-79
2023/09/10 04:21:03;;;;;;;43.60;38.92;;;;;;;;;;5088295;28;20048;-81
2023/09/10 04:23:29;;;;;;;43.67;39.08;;;;;;;;;;5081093;28;20049;-80
2023/09/10 04:25:55;;;;;;;43.03;38.33;;;;;;;;;;5073226;28;20049;-80
2023/09/10 04:28:22;;;;;;;44.15;39.53;;;;;;;;;;5067122;28;20037;-80
2023/09/10 04:30:48;;;;;;;44.22;39.60;;;;;;;;;;5070963;28;20032;-80
2023/09/10 04:33:16;;;;;;;46.63;41.53;;;;;;;;;;5056007;28;20040;-80
2023/09/10 04:35:56;;;;;;;43.97;39.38;;;;;;;;;;5072817;28;20045;-79
2023/09/10 04:38:23;;;;;;;45.55;40.50;;;;;;;;;;5056951;28;20056;-81
2023/09/10 04:40:49;;;;;;;44.42;39.53;;;;;;;;;;5051152;28;20049;-80
2023/09/10 04:43:15;;;;;;;44.20;39.50;;;;;;;;;;5037928;28;20040;-81
2023/09/10 04:45:41;;;;;;;42.67;38.17;;;;;;;;;;5071152;28;20036;-81
2023/09/10 04:48:07;;;;;;;45.30;40.40;;;;;;;;;;5073024;28;20041;-81
2023/09/10 04:50:33;;;;;;;45.53;40.60;;;;;;;;;;5072301;28;20067;-81
2023/09/10 04:53:01;;;;;;;47.00;41.28;;;;;;;;;;5068522;28;20415;-81
2023/09/10 04:55:27;;;;;;;45.65;40.92;;;;;;;;;;5055591;28;20045;-81
2023/09/10 04:57:53;;;;;;;46.72;40.42;;;;;;;;;;5071829;28;20063;-81
2023/09/10 05:00:19;;;;;;;44.03;39.42;;;;;;;;;;5066395;28;20055;-81
2023/09/10 05:02:45;;;;;;;43.03;38.13;;;;;;;;;;5075012;28;20050;-81
2023/09/10 05:05:11;;;;;;;45.10;38.67;;;;;;;;;;5065703;28;20082;-80
2023/09/10 05:07:37;;;;;;;42.42;37.92;;;;;;;;;;5063831;28;20414;-81
2023/09/10 05:10:03;;;;;;;46.05;41.13;;;;;;;;;;5056380;28;20111;-81
2023/09/10 05:12:29;;;;;;;46.83;41.75;;;;;;;;;;5069016;28;20542;-81
2023/09/10 05:14:55;;;;;;;44.03;39.42;;;;;;;;;;5073245;28;20485;-81
2023/09/10 05:17:21;;;;;;;46.65;41.30;;;;;;;;;;5063954;28;20117;-81
2023/09/10 05:19:47;;;;;;;45.22;40.50;;;;;;;;;;5076535;28;20037;-81
2023/09/10 05:22:13;;;;;;;44.63;39.15;;;;;;;;;;5069352;28;20442;-81
2023/09/10 05:24:39;;;;;;;44.75;39.53;;;;;;;;;;5057407;28;20111;-79
2023/09/10 05:27:05;;;;;;;44.22;38.88;;;;;;;;;;5074093;28;20115;-79
2023/09/10 05:29:32;;;;;;;41.72;37.38;;;;;;;;;;5069559;28;20389;-79
2023/09/10 05:31:58;;;;;;;49.22;41.05;;;;;;;;;;5063786;28;20040;-79
2023/09/10 05:34:24;;;;;;;45.65;39.85;;;;;;;;;;5065783;28;20158;-79
2023/09/10 05:36:50;;;;;;;45.67;38.55;;;;;;;;;;5072367;28;20480;-79
2023/09/10 05:39:16;;;;;;;46.60;38.78;;;;;;;;;;5070835;28;20044;-79
2023/09/10 05:41:42;;;;;;;41.13;36.72;;;;;;;;;;5056329;28;20114;-79
2023/09/10 05:44:08;;;;;;;41.55;37.03;;;;;;;;;;5056344;28;20400;-79
2023/09/10 05:46:34;;;;;;;41.38;36.75;;;;;;;;;;5056481;28;20049;-79
2023/09/10 05:49:00;;;;;;;44.20;36.92;;;;;;;;;;5072990;28;20119;-79
2023/09/10 05:51:26;;;;;;;41.35;37.00;;;;;;;;;;5063284;28;20044;-79
2023/09/10 05:53:54;;;;;;;41.90;37.28;;;;;;;;;;5064774;28;20075;-79
2023/09/10 05:56:20;;;;;;;43.78;38.42;;;;;;;;;;5055975;28;20095;-79
2023/09/10 05:58:46;;;;;;;41.08;36.58;;;;;;;;;;5054329;28;20052;-79
2023/09/10 06:01:12;;;;;;;39.78;34.70;;;;;;;;;;5054565;28;20045;-79
2023/09/10 06:03:38;;;;;;;41.85;35.42;;;;;;;;;;5055205;28;20397;-78
2023/09/10 06:06:04;;;;;;;41.67;36.28;;;;;;;;;;5054594;28;20435;-79
2023/09/10 06:08:31;;;;;;;42.28;37.55;;;;;;;;;;5055545;28;20076;-79
2023/09/10 06:10:57;;;;;;;39.95;35.33;;;;;;;;;;5055425;28;20513;-78
2023/09/10 06:13:23;;;;;;;40.20;34.63;;;;;;;;;;5055236;28;20044;-79
2023/09/10 06:15:49;;;;;;;41.92;34.70;;;;;;;;;;5055787;28;20051;-79
2023/09/10 06:18:15;;;;;;;41.08;34.40;;;;;;;;;;5055553;28;20157;-78
2023/09/10 06:20:41;;;;;;;38.30;34.20;;;;;;;;;;5058901;28;20485;-78
2023/09/10 06:23:07;;;;;;;39.22;34.92;;;;;;;;;;5072469;28;20110;-79
2023/09/10 06:25:33;;;;;;;38.90;34.60;;;;;;;;;;5069284;28;20049;-79
2023/09/10 06:27:59;;;;;;;39.97;35.45;;;;;;;;;;5054369;28;20493;-79
2023/09/10 06:30:25;;;;;;;37.38;33.47;;;;;;;;;;5054484;28;20037;-79
2023/09/10 06:32:51;;;;;;;37.83;33.83;;;;;;;;;;5054862;28;20051;-80
2023/09/10 06:35:17;;;;;;;38.97;34.45;;;;;;;;;;5054610;28;20040;-78
2023/09/10 06:37:44;;;;;;;38.83;32.97;;;;;;;;;;5054869;28;20448;-79
2023/09/10 06:40:10;;;;;;;41.88;33.10;;;;;;;;;;5052995;28;20041;-78
2023/09/10 06:42:36;;;;;;;36.17;32.38;;;;;;;;;;5053100;28;20470;-79
2023/09/10 06:45:02;;;;;;;35.15;31.38;;;;;;;;;;5058300;28;20095;-79
2023/09/10 06:47:28;;;;;;;35.45;31.52;;;;;;;;;;5074774;28;20067;-79
2023/09/10 06:49:54;;;;;;;37.05;32.95;;;;;;;;;;5073564;28;20116;-79
2023/09/10 06:52:20;;;;;;;37.10;33.17;;;;;;;;;;5067521;28;20052;-79
2023/09/10 06:54:47;;;;;;;36.95;32.97;;;;;;;;;;5054516;28;20370;-79
2023/09/10 06:57:13;;;;;;;35.08;31.38;;;;;;;;;;5067374;28;20056;-78
2023/09/10 06:59:39;;;;;;;37.25;33.25;;;;;;;;;;5074030;28;20044;-79
2023/09/10 07:02:06;;;;;;;36.53;32.55;;;;;;;;;;5074598;28;20045;-79
2023/09/10 07:04:32;;;;;;;34.63;30.90;;;;;;;;;;5072926;28;20032;-79
2023/09/10 07:06:58;;;;;;;36.75;31.58;;;;;;;;;;5074633;28;20219;-79
2023/09/10 07:09:24;;;;;;;32.00;28.63;;;;;;;;;;5074190;28;20480;-80
2023/09/10 07:11:51;;;;;;;32.88;29.40;;;;;;;;;;5074492;28;20404;-79
2023/09/10 07:14:17;;;;;;;31.70;28.38;;;;;;;;;;5074290;28;20534;-79
2023/09/10 07:16:43;;;;;;;34.63;29.95;;;;;;;;;;5074184;28;20048;-79
2023/09/10 07:19:10;;;;;;;33.17;29.63;;;;;;;;;;5078513;28;20055;-80
2023/09/10 07:21:36;;;;;;;31.98;27.33;;;;;;;;;;5059463;28;20040;-79
2023/09/10 07:24:06;;;;;;;30.77;27.33;;;;;;;;;;5060127;28;20429;-78
2023/09/10 07:26:32;;;;;;;32.70;26.00;;;;;;;;;;5054066;28;20142;-79
2023/09/10 07:28:58;;;;;;;29.55;26.38;;;;;;;;;;5052319;28;20056;-80
2023/09/10 07:31:24;;;;;;;28.00;24.58;;;;;;;;;;5052723;28;20049;-80
2023/09/10 07:33:50;;;;;;;28.00;24.80;;;;;;;;;;5053598;28;20048;-79
2023/09/10 07:36:16;;;;;;;28.13;25.10;;;;;;;;;;5057717;28;20037;-79
2023/09/10 07:38:42;;;;;;;28.98;24.58;;;;;;;;;;5071750;28;20124;-79
2023/09/10 07:41:08;;;;;;;31.92;24.90;;;;;;;;;;5069098;28;20037;-79
2023/09/10 07:43:34;;;;;;;27.50;24.42;;;;;;;;;;5053683;28;20107;-79
2023/09/10 07:46:00;;;;;;;28.23;24.60;;;;;;;;;;5062344;28;20040;-79
2023/09/10 07:48:26;;;;;;;27.58;22.50;;;;;;;;;;5073483;28;20468;-79
2023/09/10 07:50:56;;;;;;;24.73;21.27;;;;;;;;;;5054864;28;20091;-78
2023/09/10 07:53:22;;;;;;;26.13;22.13;;;;;;;;;;5048507;28;20438;-78
2023/09/10 07:55:48;;;;;;;27.58;21.98;;;;;;;;;;5052465;28;20044;-77
2023/09/10 07:58:14;;;;;;;21.45;19.25;;;;;;;;;;5055473;28;20044;-79
2023/09/10 08:00:40;;;;;;;24.77;19.38;;;;;;;;;;5073488;28;20119;-79
2023/09/10 08:03:07;;;;;;;21.20;18.90;;;;;;;;;;5071043;28;20107;-79
2023/09/10 08:05:35;;;;;;;18.77;16.25;;;;;;;;;;5073080;28;20041;-78
2023/09/10 08:08:05;;;;;;;19.95;17.10;;;;;;;;;;5071661;28;20385;-75
2023/09/10 08:10:32;;;;;;;21.73;17.55;;;;;;;;;;5061618;28;20044;-83
2023/09/10 08:12:59;;;;;;;20.25;17.48;;;;;;;;;;5061683;28;20053;-76
2023/09/10 08:15:25;;;;;;;18.92;16.92;;;;;;;;;;5065440;28;20115;-76
2023/09/10 08:17:53;;;;;;;16.92;14.65;;;;;;;;;;5062320;28;20044;-76
2023/09/10 08:20:20;;;;;;;14.52;12.98;;;;;;;;;;5070440;28;20102;-77
2023/09/10 08:22:46;;;;;;;15.23;12.35;;;;;;;;;;5070551;28;20055;-76
2023/09/10 08:25:13;;;;;;;18.85;14.63;;;;;;;;;;5072392;28;20054;-77
2023/09/10 08:27:39;;;;;;;18.90;14.35;;;;;;;;;;5059730;28;20068;-76
2023/09/10 08:30:06;;;;;;;12.52;9.70;;;;;;;;;;5057378;28;20048;-77
2023/09/10 08:32:33;;;;;;;14.55;11.95;;;;;;;;;;5053721;28;20055;-78
2023/09/10 08:34:59;;;;;;;13.27;11.10;;;;;;;;;;5064265;28;20037;-77
2023/09/10 08:37:25;;;;;;;14.27;10.93;;;;;;;;;;5052270;28;20524;-76
2023/09/10 08:39:51;;;;;;;13.07;11.23;;;;;;;;;;5052112;28;20041;-76
2023/09/10 08:42:23;;;;;;;13.13;10.63;;;;;;;;;;5073071;28;20044;-75
2023/09/10 08:44:54;;;;;;;14.32;9.98;;;;;;;;;;5078001;28;20045;-75
2023/09/10 08:47:23;;;;;;;12.13;9.65;;;;;;;;;;5077825;28;20051;-75
2023/09/10 08:49:51;;;;;;;12.20;9.40;;;;;;;;;;5073040;28;20044;-76
2023/09/10 08:52:18;;;;;;;15.77;11.25;;;;;;;;;;5072873;28;20044;-76
2023/09/10 08:54:44;;;;;;;11.65;10.00;;;;;;;;;;5067707;28;20072;-76
2023/09/10 08:57:12;;;;;;;11.20;9.82;;;;;;;;;;5070605;28;20472;-76
2023/09/10 08:59:38;;;;;;;10.43;8.23;;;;;;;;;;5062588;28;20045;-76
2023/09/10 09:02:04;;;;;;;15.25;8.65;;;;;;;;;;5057249;28;20049;-77
2023/09/10 09:04:30;;;;;;;11.52;8.23;;;;;;;;;;5066314;28;20060;-76
2023/09/10 09:06:57;;;;;;;11.70;7.38;;;;;;;;;;5071479;28;20037;-77
2023/09/10 09:09:25;;;;;;;11.90;8.20;;;;;;;;;;5071274;28;20091;-77
2023/09/10 09:11:52;;;;;;;9.48;8.10;;;;;;;;;;5066996;28;20086;-77
2023/09/10 09:14:19;;;;;;;11.60;8.00;;;;;;;;;;5065288;28;20106;-77
2023/09/10 09:16:45;;;;;;;15.25;7.95;;;;;;;;;;5051332;28;20133;-77
2023/09/10 09:19:12;;;;;;;10.93;7.00;;;;;;;;;;5052450;28;20094;-77
2023/09/10 09:21:40;;;;;;;8.88;6.40;;;;;;;;;;5052502;28;20041;-77
2023/09/10 09:24:08;;;;;;;9.98;7.00;;;;;;;;;;5052782;28;20061;-77
2023/09/10 09:26:34;;;;;;;10.02;7.10;;;;;;;;;;5052289;28;20049;-77
2023/09/10 09:29:00;;;;;;;9.70;7.15;;;;;;;;;;5054242;28;20049;-77
2023/09/10 09:31:26;;;;;;;6.65;5.93;;;;;;;;;;5070563;28;20076;-77
2023/09/10 09:33:53;;;;;;;9.13;6.60;;;;;;;;;;5070545;28;20049;-77
2023/09/10 09:36:19;;;;;;;9.45;6.85;;;;;;;;;;5087947;28;20041;-77
2023/09/10 09:38:46;;;;;;;10.75;5.35;;;;;;;;;;5071630;28;20045;-77
2023/09/10 09:41:16;;;;;;;12.52;6.10;;;;;;;;;;5069652;28;20528;-78
2023/09/10 09:43:42;;;;;;;7.90;5.85;;;;;;;;;;5057528;28;20075;-78
2023/09/10 09:46:08;;;;;;;8.88;5.97;;;;;;;;;;5073546;28;20051;-78
2023/09/10 09:48:35;;;;;;;9.63;5.75;;;;;;;;;;5074140;28;20041;-77
2023/09/10 09:51:05;;;;;;;10.70;5.82;;;;;;;;;;5068859;28;20044;-77
2023/09/10 09:53:31;;;;;;;9.18;6.20;;;;;;;;;;5072648;28;20133;-84
2023/09/10 09:55:59;;;;;;;11.07;6.47;;;;;;;;;;5057477;28;20047;-84
2023/09/10 09:58:26;;;;;;;8.90;5.05;;;;;;;;;;5074084;28;20386;-84
2023/09/10 10:00:52;;;;;;;9.13;5.00;;;;;;;;;;5074457;28;20460;-84
2023/09/10 10:03:19;;;;;;;6.85;4.93;;;;;;;;;;5074938;28;20047;-85
2023/09/10 10:05:48;;;;;;;8.85;5.32;;;;;;;;;;5075414;28;20060;-84
2023/09/10 10:08:15;;;;;;;7.93;5.28;;;;;;;;;;5057862;28;20048;-88
2023/09/10 10:10:46;;;;;;;8.65;5.55;;;;;;;;;;5057124;28;20151;-84
2023/09/10 10:13:12;;;;;;;10.95;5.63;;;;;;;;;;5063943;28;20051;-87
2023/09/10 10:15:38;;;;;;;9.30;5.15;;;;;;;;;;5071903;28;20545;-85
2023/09/10 10:18:04;;;;;;;8.55;4.43;;;;;;;;;;5053221;28;20049;-86
2023/09/10 10:20:30;;;;;;;8.75;5.18;;;;;;;;;;5052160;28;20124;-85
2023/09/10 10:22:57;;;;;;;9.13;5.50;;;;;;;;;;5054746;28;20463;-86
2023/09/10 10:25:23;;;;;;;9.27;5.13;;;;;;;;;;5072287;28;20068;-85
2023/09/10 10:27:49;;;;;;;8.57;5.53;;;;;;;;;;5070807;28;20048;-86
2023/09/10 10:30:15;;;;;;;8.93;5.43;;;;;;;;;;5066281;28;20088;-87
2023/09/10 10:32:45;;;;;;;8.57;6.30;;;;;;;;;;5051437;28;20049;-85
2023/09/10 10:35:12;;;;;;;9.02;6.25;;;;;;;;;;5052330;28;20059;-86
2023/09/10 10:37:58;;;;;;;11.63;5.75;;;;;;;;;;5038028;28;20132;-86
2023/09/10 10:40:27;;;;;;;9.52;5.60;;;;;;;;;;5040544;28;20463;-87
2023/09/10 10:42:56;;;;;;;9.38;5.15;;;;;;;;;;5056693;28;20428;-86
2023/09/10 10:45:24;;;;;;;8.30;5.00;;;;;;;;;;5052629;28;20136;-85
2023/09/10 10:47:51;;;;;;;11.55;5.35;;;;;;;;;;5035420;28;20068;-84
2023/09/10 10:50:25;;;;;;;15.18;5.65;;;;;;;;;;5066499;28;20104;-85
2023/09/10 10:52:51;;;;;;;8.68;5.88;;;;;;;;;;5072651;28;20037;-86
2023/09/10 10:55:18;;;;;;;9.63;5.63;;;;;;;;;;5065001;28;20084;-83
2023/09/10 10:57:44;;;;;;;11.13;5.13;;;;;;;;;;5051062;28;20041;-83
2023/09/10 11:00:10;;;;;;;9.05;4.85;;;;;;;;;;5052151;28;20052;-83
2023/09/10 11:02:37;;;;;;;7.68;5.43;;;;;;;;;;5060805;28;20083;-83
2023/09/10 11:05:07;;;;;;;14.40;5.90;;;;;;;;;;5070336;28;20048;-84
2023/09/10 11:07:33;;;;;;;11.48;6.47;;;;;;;;;;5053568;28;20049;-83
2023/09/10 11:10:00;;;;;;;8.55;5.05;;;;;;;;;;5072104;28;20098;-84
2023/09/10 11:12:27;;;;;;;9.85;5.03;;;;;;;;;;5069555;28;20067;-84
2023/09/10 11:14:59;;;;;;;9.13;5.10;;;;;;;;;;5069614;28;20382;-84
2023/09/10 11:17:29;;;;;;;7.03;5.40;;;;;;;;;;5053634;28;20044;-84
2023/09/10 11:19:56;;;;;;;10.50;5.30;;;;;;;;;;5070654;28;20049;-84
2023/09/10 11:22:23;;;;;;;8.73;4.50;;;;;;;;;;5070713;28;20059;-84
2023/09/10 11:25:05;;;;;;;8.25;4.63;;;;;;;;;;5070719;28;20064;-85
2023/09/10 11:27:33;;;;;;;10.23;4.70;;;;;;;;;;5054234;28;20140;-84
2023/09/10 11:30:10;;;;;;;8.82;4.80;;;;;;;;;;5050763;28;20453;-85
2023/09/10 11:32:37;;;;;;;10.68;5.55;;;;;;;;;;5033590;28;20136;-85
2023/09/10 11:35:18;;;;;;;11.35;5.30;;;;;;;;;;5033507;28;20466;-84
2023/09/10 11:37:47;;;;;;;9.63;4.88;;;;;;;;;;5034685;28;20306;-84
2023/09/10 11:40:14;;;;;;;10.85;5.45;;;;;;;;;;5070826;28;20083;-84
2023/09/10 11:42:43;;;;;;;6.55;4.85;;;;;;;;;;5069985;28;20101;-84
2023/09/10 11:45:10;;;;;;;10.13;5.55;;;;;;;;;;5052927;28;20045;-83
2023/09/10 11:47:40;;;;;;;11.55;4.70;;;;;;;;;;5068976;28;20041;-84
2023/09/10 11:50:07;;;;;;;7.78;4.75;;;;;;;;;;5049791;28;20110;-84
2023/09/10 11:52:34;;;;;;;9.02;5.60;;;;;;;;;;5050109;28;20094;-84
2023/09/10 11:55:02;;;;;;;15.63;4.70;;;;;;;;;;5066170;28;20100;-85
2023/09/10 11:57:28;;;;;;;11.70;4.75;;;;;;;;;;5066829;28;20049;-85
2023/09/10 11:59:54;;;;;;;8.60;4.88;;;;;;;;;;5051586;28;20044;-84
2023/09/10 12:02:24;;;;;;;8.13;5.32;;;;;;;;;;5065889;28;20061;-85
2023/09/10 12:04:50;;;;;;;8.90;4.40;;;;;;;;;;5065826;28;20090;-83
2023/09/10 12:07:16;;;;;;;10.80;5.05;;;;;;;;;;5071202;28;20036;-84
2023/09/10 12:09:42;;;;;;;10.15;4.82;;;;;;;;;;5056746;28;20447;-85
2023/09/10 12:12:11;;;;;;;11.07;5.00;;;;;;;;;;5046810;28;20458;-85
2023/09/10 12:14:37;;;;;;;7.90;4.45;;;;;;;;;;5066316;28;20532;-85
2023/09/10 12:17:04;;;;;;;11.70;5.40;;;;;;;;;;5055874;28;20040;-85
2023/09/10 12:19:31;;;;;;;10.13;5.07;;;;;;;;;;5056198;28;20048;-86
2023/09/10 12:21:57;;;;;;;12.48;4.57;;;;;;;;;;5072229;28;20052;-86
2023/09/10 12:24:23;;;;;;;14.38;5.28;;;;;;;;;;5071505;28;20060;-86
2023/09/10 12:26:50;;;;;;;11.93;5.20;;;;;;;;;;5070296;28;20049;-85
2023/09/10 12:29:16;;;;;;;11.52;5.45;;;;;;;;;;5088501;28;20044;-85
2023/09/10 12:31:42;;;;;;;13.35;5.38;;;;;;;;;;5072364;28;20424;-85
2023/09/10 12:34:09;;;;;;;12.95;5.05;;;;;;;;;;5069123;28;20091;-84
2023/09/10 12:36:36;;;;;;;8.90;5.20;;;;;;;;;;5071728;28;20080;-84
2023/09/10 12:39:04;;;;;;;7.43;4.95;;;;;;;;;;5071252;28;20055;-85
2023/09/10 12:41:30;;;;;;;9.93;4.90;;;;;;;;;;5073080;28;20036;-84
2023/09/10 12:43:56;;;;;;;8.80;5.32;;;;;;;;;;5054813;28;20045;-84
2023/09/10 12:46:22;;;;;;;16.45;4.70;;;;;;;;;;5071653;28;20123;-84
2023/09/10 12:48:49;;;;;;;11.98;5.32;;;;;;;;;;5054596;28;20033;-84
2023/09/10 12:51:15;;;;;;;15.68;6.20;;;;;;;;;;5088959;28;20103;-84
2023/09/10 12:53:42;;;;;;;11.35;5.20;;;;;;;;;;5088688;28;20111;-84
2023/09/10 12:56:08;;;;;;;8.63;4.50;;;;;;;;;;5088854;28;20048;-84
2023/09/10 12:58:34;;;;;;;14.50;5.30;;;;;;;;;;5071793;28;20048;-84
2023/09/10 13:01:00;;;;;;;20.70;5.80;;;;;;;;;;5058344;28;20070;-86
2023/09/10 13:03:28;;;;;;;12.00;4.90;;;;;;;;;;5081441;28;20134;-84
2023/09/10 13:05:54;;;;;;;13.27;5.53;;;;;;;;;;5077665;28;20124;-84
2023/09/10 13:08:20;;;;;;;12.63;5.38;;;;;;;;;;5087689;28;20052;-84
2023/09/10 13:10:46;;;;;;;15.57;5.45;;;;;;;;;;5095396;28;20028;-84
2023/09/10 13:13:12;;;;;;;16.35;5.80;;;;;;;;;;5091865;28;20457;-85
2023/09/10 13:15:39;;;;;;;17.55;5.68;;;;;;;;;;5055313;28;20076;-85
2023/09/10 13:18:05;;;;;;;12.25;6.15;;;;;;;;;;5073719;28;20048;-84
2023/09/10 13:20:31;;;;;;;16.23;6.18;;;;;;;;;;5061659;28;20557;-85
2023/09/10 13:22:57;;;;;;;14.07;5.57;;;;;;;;;;5069614;28;20485;-83
2023/09/10 13:25:23;;;;;;;12.55;5.40;;;;;;;;;;5071805;28;20045;-85
2023/09/10 13:27:49;;;;;;;9.25;5.18;;;;;;;;;;5059444;28;20130;-85
2023/09/10 13:30:15;;;;;;;18.65;5.40;;;;;;;;;;5061292;28;20037;-84
2023/09/10 13:32:42;;;;;;;12.40;5.40;;;;;;;;;;5043322;28;20469;-85
2023/09/10 13:35:08;;;;;;;15.00;5.43;;;;;;;;;;5056567;28;20044;-83
2023/09/10 13:37:34;;;;;;;15.38;5.60;;;;;;;;;;5076604;28;20041;-84
2023/09/10 13:40:00;;;;;;;16.27;6.05;;;;;;;;;;5076650;28;20119;-85
2023/09/10 13:42:26;;;;;;;22.15;6.32;;;;;;;;;;5075298;28;20135;-82
2023/09/10 13:44:52;;;;;;;15.10;5.75;;;;;;;;;;5074630;28;20047;-81
2023/09/10 13:47:18;;;;;;;17.85;5.75;;;;;;;;;;5073686;28;20091;-82
2023/09/10 13:49:44;;;;;;;16.17;6.22;;;;;;;;;;5066653;28;20121;-83
2023/09/10 13:52:11;;;;;;;12.85;5.72;;;;;;;;;;5054261;28;20084;-82
2023/09/10 13:54:37;;;;;;;15.90;5.38;;;;;;;;;;5070860;28;20045;-82
2023/09/10 13:57:03;;;;;;;17.30;5.43;;;;;;;;;;5054084;28;20127;-83
2023/09/10 13:59:30;;;;;;;22.20;6.50;;;;;;;;;;5060521;28;20052;-83
2023/09/10 14:01:56;;;;;;;16.50;5.88;;;;;;;;;;5077031;28;20420;-83
2023/09/10 14:04:24;;;;;;;17.85;6.25;;;;;;;;;;5073768;28;20489;-83
2023/09/10 14:06:50;;;;;;;16.27;5.75;;;;;;;;;;5074525;28;20056;-83
2023/09/10 14:09:16;;;;;;;22.35;5.95;;;;;;;;;;5090208;28;20036;-84
2023/09/10 14:11:42;;;;;;;16.85;5.57;;;;;;;;;;5075896;28;20068;-83
2023/09/10 14:14:08;;;;;;;25.58;5.68;;;;;;;;;;5091378;28;20044;-82
2023/09/10 14:16:34;;;;;;;15.18;5.45;;;;;;;;;;5075111;28;20041;-81
2023/09/10 14:19:00;;;;;;;14.65;6.10;;;;;;;;;;5074030;28;20057;-82
2023/09/10 14:21:26;;;;;;;19.73;5.95;;;;;;;;;;5074419;28;20044;-83